createdAt,value
2022-11-29T00:02:23.162Z,41.70
2022-11-29T00:04:51.205Z,39.40
2022-11-29T00:07:20.690Z,40.60
2022-11-29T00:09:48.680Z,38.90
2022-11-29T00:12:16.692Z,38.87
2022-11-29T00:14:44.942Z,37.83
2022-11-29T00:17:13.042Z,40.33
2022-11-29T00:19:41.118Z,43.40
2022-11-29T00:22:09.079Z,42.70
2022-11-29T00:24:38.412Z,41.43
2022-11-29T00:27:06.390Z,38.73
2022-11-29T00:29:34.336Z,37.30
2022-11-29T00:32:02.347Z,40.23
2022-11-29T00:34:30.362Z,39.23
2022-11-29T00:36:58.611Z,41.57
2022-11-29T00:39:26.779Z,42.67
2022-11-29T00:41:56.249Z,42.67
2022-11-29T00:44:24.189Z,46.00
2022-11-29T00:46:52.287Z,46.40
2022-11-29T00:49:20.336Z,45.63
2022-11-29T00:51:48.329Z,49.07
2022-11-29T00:54:16.400Z,50.87
2022-11-29T00:56:44.888Z,51.40
2022-11-29T00:59:14.203Z,49.00
2022-11-29T01:01:42.291Z,47.90
2022-11-29T01:04:10.393Z,49.43
2022-11-29T01:06:38.526Z,50.97
2022-11-29T01:09:07.073Z,49.73
2022-11-29T01:11:35.464Z,51.77
2022-11-29T01:14:04.065Z,52.33
2022-11-29T01:16:33.822Z,53.70
2022-11-29T01:19:02.598Z,54.37
2022-11-29T01:21:30.949Z,51.40
2022-11-29T01:23:59.004Z,55.03
2022-11-29T01:26:29.436Z,52.40
2022-11-29T01:28:59.253Z,53.50
2022-11-29T01:31:29.929Z,52.87
2022-11-29T01:34:01.410Z,56.67
2022-11-29T01:36:29.658Z,54.97
2022-11-29T01:38:59.679Z,57.17
2022-11-29T01:41:29.491Z,54.77
2022-11-29T01:44:02.562Z,56.37
2022-11-29T01:46:32.754Z,56.27
2022-11-29T01:49:06.386Z,56.00
2022-11-29T01:51:36.962Z,55.43
2022-11-29T01:54:06.002Z,55.73
2022-11-29T01:56:35.774Z,54.10
2022-11-29T01:59:07.310Z,53.13
2022-11-29T02:01:36.144Z,55.53
2022-11-29T02:04:06.664Z,52.90
2022-11-29T02:06:35.377Z,54.13
2022-11-29T02:09:03.893Z,57.43
2022-11-29T02:12:05.227Z,51.70
2022-11-29T02:14:53.528Z,53.00
2022-11-29T02:17:32.006Z,54.37
2022-11-29T02:20:36.063Z,55.07
2022-11-29T02:23:24.581Z,52.60
2022-11-29T02:26:04.410Z,55.10
2022-11-29T02:29:16.355Z,55.00
2022-11-29T02:32:44.307Z,53.47
2022-11-29T02:35:25.378Z,50.80
2022-11-29T02:38:14.908Z,50.93
2022-11-29T02:41:02.091Z,49.80
2022-11-29T02:44:01.556Z,49.47
2022-11-29T02:46:48.467Z,49.13
2022-11-29T02:49:32.879Z,47.13
2022-11-29T02:52:04.138Z,43.50
2022-11-29T02:54:49.608Z,40.90
2022-11-29T02:57:26.004Z,39.50
2022-11-29T02:59:59.858Z,39.17
2022-11-29T03:02:36.590Z,38.67
2022-11-29T03:05:13.883Z,37.67
2022-11-29T03:07:50.301Z,38.67
2022-11-29T03:10:32.043Z,35.23
2022-11-29T03:13:01.191Z,34.93
2022-11-29T03:15:32.231Z,35.17
2022-11-29T03:18:17.819Z,33.57
2022-11-29T03:21:01.554Z,33.70
2022-11-29T03:23:35.461Z,35.33
2022-11-29T03:26:08.251Z,36.30
2022-11-29T03:28:40.594Z,40.43
2022-11-29T03:31:16.930Z,37.73
2022-11-29T03:34:05.096Z,37.33
2022-11-29T03:36:42.214Z,34.50
2022-11-29T03:39:18.341Z,37.47
2022-11-29T03:41:54.404Z,38.23
2022-11-29T03:44:28.080Z,38.63
2022-11-29T03:46:59.507Z,41.90
2022-11-29T03:49:32.062Z,43.93
2022-11-29T03:52:13.205Z,44.13
2022-11-29T03:54:53.940Z,42.37
2022-11-29T03:57:31.655Z,42.37
2022-11-29T04:00:07.685Z,41.40
2022-11-29T04:03:11.885Z,38.57
2022-11-29T04:06:07.927Z,36.17
2022-11-29T04:09:07.895Z,36.80
2022-11-29T04:12:04.851Z,39.40
2022-11-29T04:14:39.686Z,35.43
2022-11-29T04:17:42.500Z,35.27
2022-11-29T04:20:42.026Z,35.90
2022-11-29T04:23:47.296Z,35.07
2022-11-29T04:26:47.764Z,34.60
2022-11-29T04:29:36.962Z,35.90
2022-11-29T04:32:22.516Z,34.63
2022-11-29T04:35:24.436Z,37.90
2022-11-29T04:38:22.139Z,37.60
2022-11-29T04:41:06.232Z,36.03
2022-11-29T04:44:04.397Z,37.80
2022-11-29T04:47:01.736Z,36.83
2022-11-29T04:49:51.378Z,37.67
2022-11-29T04:52:32.031Z,39.07
2022-11-29T04:55:09.217Z,40.63
2022-11-29T04:57:45.124Z,43.77
2022-11-29T05:00:14.453Z,43.40
2022-11-29T05:02:54.648Z,43.57
2022-11-29T05:05:31.546Z,44.35
2022-11-29T05:08:22.530Z,44.17
2022-11-29T05:10:59.799Z,46.90
2022-11-29T05:13:35.286Z,45.93
2022-11-29T05:16:34.430Z,47.20
2022-11-29T05:19:25.164Z,48.97
2022-11-29T05:22:02.132Z,46.60
2022-11-29T05:24:43.855Z,47.90
2022-11-29T05:27:19.051Z,48.93
2022-11-29T05:29:55.343Z,47.23
2022-11-29T05:32:30.770Z,46.67
2022-11-29T05:35:25.164Z,47.97
2022-11-29T05:37:55.986Z,49.47
2022-11-29T05:40:45.338Z,49.27
2022-11-29T05:43:45.922Z,51.17
2022-11-29T05:46:20.847Z,53.10
2022-11-29T05:48:58.478Z,49.80
2022-11-29T05:51:41.334Z,49.90
2022-11-29T05:54:20.928Z,49.30
2022-11-29T05:56:58.472Z,48.57
2022-11-29T05:59:29.543Z,45.63
2022-11-29T06:02:11.923Z,44.17
2022-11-29T06:05:06.535Z,45.40
2022-11-29T06:07:44.667Z,43.23
2022-11-29T06:10:17.730Z,48.33
2022-11-29T06:12:55.781Z,48.77
2022-11-29T06:16:08.887Z,48.73
2022-11-29T06:19:01.874Z,46.37
2022-11-29T06:21:40.180Z,51.67
2022-11-29T06:24:36.078Z,52.80
2022-11-29T06:27:36.409Z,53.10
2022-11-29T06:30:09.839Z,53.93
2022-11-29T06:32:45.823Z,52.23
2022-11-29T06:35:33.391Z,49.63
2022-11-29T06:38:09.333Z,48.40
2022-11-29T06:40:39.725Z,50.17
2022-11-29T06:43:08.257Z,49.27
2022-11-29T06:45:37.070Z,53.30
2022-11-29T06:48:07.936Z,52.83
2022-11-29T06:50:51.183Z,52.00
2022-11-29T06:53:27.145Z,54.30
2022-11-29T06:56:05.170Z,54.37
2022-11-29T06:58:46.276Z,55.90
2022-11-29T07:01:29.397Z,55.30
2022-11-29T07:04:13.113Z,53.30
2022-11-29T07:06:41.640Z,51.40
2022-11-29T07:09:15.173Z,47.60
2022-11-29T07:11:45.763Z,50.13
2022-11-29T07:14:14.643Z,49.97
2022-11-29T07:16:57.159Z,49.67
2022-11-29T07:19:36.738Z,51.17
2022-11-29T07:22:21.767Z,52.13
2022-11-29T07:25:02.135Z,49.50
2022-11-29T07:27:39.619Z,50.10
2022-11-29T07:30:15.485Z,50.23
2022-11-29T07:33:00.069Z,51.17
2022-11-29T07:35:35.223Z,50.03
2022-11-29T07:38:11.179Z,53.37
2022-11-29T07:40:49.456Z,50.20
2022-11-29T07:43:29.914Z,48.07
2022-11-29T07:45:58.330Z,48.77
2022-11-29T07:48:26.938Z,49.67
2022-11-29T07:50:55.547Z,48.17
2022-11-29T07:53:24.645Z,47.17
2022-11-29T07:55:52.846Z,48.37
2022-11-29T07:58:22.225Z,48.70
2022-11-29T08:00:50.736Z,48.03
2022-11-29T08:03:18.833Z,47.37
2022-11-29T08:05:48.327Z,47.90
2022-11-29T08:08:16.873Z,46.47
2022-11-29T08:10:46.067Z,46.87
2022-11-29T08:13:21.583Z,48.10
2022-11-29T08:15:51.303Z,45.07
2022-11-29T08:18:19.657Z,49.00
2022-11-29T08:20:47.931Z,44.13
2022-11-29T08:23:16.693Z,47.10
2022-11-29T08:25:46.298Z,44.77
2022-11-29T08:28:14.961Z,45.30
2022-11-29T08:30:43.044Z,45.20
2022-11-29T08:33:12.414Z,46.37
2022-11-29T08:35:42.763Z,44.80
2022-11-29T08:38:11.807Z,45.10
2022-11-29T08:40:39.805Z,44.73
2022-11-29T08:43:07.900Z,45.27
2022-11-29T08:45:35.926Z,45.07
2022-11-29T08:48:04.024Z,45.73
2022-11-29T08:50:34.280Z,43.67
2022-11-29T08:53:19.701Z,44.73
2022-11-29T08:55:47.737Z,43.00
2022-11-29T08:58:16.833Z,44.23
2022-11-29T09:00:46.801Z,43.23
2022-11-29T09:03:32.156Z,43.97
2022-11-29T09:06:11.921Z,44.57
2022-11-29T09:08:40.553Z,43.27
2022-11-29T09:11:13.181Z,37.83
2022-11-29T09:13:42.083Z,41.70
2022-11-29T09:16:11.996Z,39.47
2022-11-29T09:18:41.403Z,39.20
2022-11-29T09:21:12.608Z,39.40
2022-11-29T09:23:42.111Z,37.63
2022-11-29T09:26:16.673Z,38.43
2022-11-29T09:28:44.686Z,38.17
2022-11-29T09:31:15.098Z,36.10
2022-11-29T09:33:43.426Z,38.30
2022-11-29T09:36:29.832Z,37.53
2022-11-29T09:38:57.902Z,38.60
2022-11-29T09:41:45.607Z,38.33
2022-11-29T09:44:22.231Z,36.73
2022-11-29T09:46:58.848Z,37.83
2022-11-29T09:49:52.004Z,36.60
2022-11-29T09:52:31.609Z,37.93
2022-11-29T09:55:11.203Z,36.20
2022-11-29T09:57:41.328Z,40.83
2022-11-29T10:00:17.623Z,37.70
2022-11-29T10:02:49.107Z,39.83
2022-11-29T10:05:23.137Z,36.90
2022-11-29T10:08:01.454Z,36.53
2022-11-29T10:10:37.826Z,34.77
2022-11-29T10:13:15.768Z,35.67
2022-11-29T10:15:46.885Z,35.03
2022-11-29T10:18:23.907Z,36.60
2022-11-29T10:20:55.109Z,37.20
2022-11-29T10:23:30.434Z,37.07
2022-11-29T10:25:59.468Z,36.43
2022-11-29T10:28:31.248Z,36.67
2022-11-29T10:31:04.298Z,36.83
2022-11-29T10:33:36.924Z,36.43
2022-11-29T10:36:12.127Z,35.30
2022-11-29T10:38:42.470Z,35.23
2022-11-29T10:41:15.413Z,33.83
2022-11-29T10:43:43.741Z,34.43
2022-11-29T10:46:17.349Z,32.53
2022-11-29T10:48:45.723Z,33.53
2022-11-29T10:51:18.154Z,33.07
2022-11-29T10:53:47.756Z,34.43
2022-11-29T10:56:24.158Z,34.53
2022-11-29T10:59:03.317Z,35.23
2022-11-29T11:01:33.390Z,34.97
2022-11-29T11:04:04.324Z,35.47
2022-11-29T11:06:46.123Z,32.57
2022-11-29T11:09:22.464Z,32.23
2022-11-29T11:11:55.092Z,32.13
2022-11-29T11:14:25.104Z,31.90
2022-11-29T11:16:54.085Z,31.10
2022-11-29T11:19:32.715Z,30.17
2022-11-29T11:22:03.635Z,32.43
2022-11-29T11:24:37.049Z,31.53
2022-11-29T11:27:05.266Z,33.07
2022-11-29T11:29:38.351Z,32.90
2022-11-29T11:32:08.816Z,31.80
2022-11-29T11:34:37.938Z,32.53
2022-11-29T11:37:22.597Z,31.10
2022-11-29T11:39:53.507Z,30.67
2022-11-29T11:42:41.011Z,31.47
2022-11-29T11:45:28.276Z,31.47
2022-11-29T11:47:59.490Z,32.80
2022-11-29T11:50:34.247Z,33.90
2022-11-29T11:53:06.472Z,34.93
2022-11-29T11:55:39.997Z,34.40
2022-11-29T11:58:17.447Z,35.47
2022-11-29T12:01:04.002Z,38.43
2022-11-29T12:03:56.041Z,36.70
2022-11-29T12:06:37.386Z,38.20
2022-11-29T12:09:13.478Z,39.70
2022-11-29T12:11:52.509Z,38.67
2022-11-29T12:14:29.611Z,38.67
2022-11-29T12:17:06.318Z,38.90
2022-11-29T12:19:42.796Z,42.27
2022-11-29T12:22:17.662Z,39.47
2022-11-29T12:24:54.144Z,40.93
2022-11-29T12:27:23.678Z,43.00
2022-11-29T12:29:52.131Z,41.17
2022-11-29T12:32:42.946Z,38.53
2022-11-29T12:35:34.971Z,34.67
2022-11-29T12:38:11.922Z,35.13
2022-11-29T12:40:47.094Z,32.40
2022-11-29T12:43:27.877Z,30.63
2022-11-29T12:46:04.562Z,30.90
2022-11-29T12:48:42.039Z,32.10
2022-11-29T12:51:22.925Z,28.33
2022-11-29T12:54:11.772Z,28.93
2022-11-29T12:56:47.968Z,30.83
2022-11-29T12:59:27.838Z,29.30
2022-11-29T13:02:16.615Z,29.20
2022-11-29T13:04:58.096Z,28.83
2022-11-29T13:07:35.158Z,28.00
2022-11-29T13:10:26.479Z,31.33
2022-11-29T13:12:56.916Z,29.10
2022-11-29T13:15:36.885Z,28.80
2022-11-29T13:18:12.106Z,26.63
2022-11-29T13:20:45.909Z,27.60
2022-11-29T13:23:39.103Z,28.00
2022-11-29T13:26:13.659Z,28.17
2022-11-29T13:28:46.988Z,27.63
2022-11-29T13:31:19.467Z,28.03
2022-11-29T13:33:56.003Z,28.67
2022-11-29T13:36:40.993Z,27.63
2022-11-29T13:39:23.399Z,27.90
2022-11-29T13:41:58.329Z,25.60
2022-11-29T13:44:34.742Z,25.20
2022-11-29T13:47:08.329Z,25.77
2022-11-29T13:49:57.418Z,25.67
2022-11-29T13:52:39.020Z,24.43
2022-11-29T13:55:29.157Z,23.93
2022-11-29T13:58:18.872Z,25.33
2022-11-29T14:00:52.336Z,23.77
2022-11-29T14:03:31.072Z,24.30
2022-11-29T14:06:21.876Z,23.27
2022-11-29T14:09:23.445Z,21.43
2022-11-29T14:11:58.948Z,23.30
2022-11-29T14:14:32.017Z,20.87
2022-11-29T14:17:02.242Z,22.53
2022-11-29T14:19:34.430Z,24.47
2022-11-29T14:22:31.098Z,20.43
2022-11-29T14:28:31.063Z,20.93
2022-11-29T14:31:01.579Z,22.67
2022-11-29T14:34:00.614Z,21.27
2022-11-29T14:36:47.377Z,21.53
2022-11-29T14:39:32.165Z,21.57
2022-11-29T14:42:14.435Z,21.17
2022-11-29T14:44:48.135Z,21.90
2022-11-29T14:47:25.035Z,21.27
2022-11-29T14:49:55.150Z,21.80
2022-11-29T14:52:29.346Z,21.97
2022-11-29T14:55:04.804Z,23.93
2022-11-29T14:58:06.355Z,24.17
2022-11-29T15:01:08.086Z,22.37
2022-11-29T15:03:44.483Z,21.60
2022-11-29T15:06:25.514Z,22.43
2022-11-29T15:09:03.226Z,23.53
2022-11-29T15:11:50.943Z,28.40
2022-11-29T15:14:27.894Z,25.20
2022-11-29T15:17:06.031Z,24.40
2022-11-29T15:20:12.746Z,24.07
2022-11-29T15:22:49.023Z,25.13
2022-11-29T15:25:21.764Z,24.30
2022-11-29T15:27:54.435Z,24.67
2022-11-29T15:30:30.182Z,25.30
2022-11-29T15:32:59.252Z,25.93
2022-11-29T15:35:27.534Z,27.47
2022-11-29T15:37:56.077Z,27.43
2022-11-29T15:40:35.120Z,27.53
2022-11-29T15:43:16.434Z,28.60
2022-11-29T15:45:49.056Z,28.63
2022-11-29T15:48:22.168Z,28.50
2022-11-29T15:51:05.696Z,28.37
2022-11-29T15:53:38.534Z,30.27
2022-11-29T15:56:14.976Z,28.37
2022-11-29T15:58:44.598Z,29.57
2022-11-29T16:01:19.830Z,30.10
2022-11-29T16:03:49.750Z,31.03
2022-11-29T16:06:26.576Z,31.37
2022-11-29T16:08:55.372Z,30.70
2022-11-29T16:11:28.792Z,31.03
2022-11-29T16:14:05.273Z,30.33
2022-11-29T16:16:35.483Z,32.20
2022-11-29T16:19:12.231Z,30.60
2022-11-29T16:21:40.880Z,29.97
2022-11-29T16:24:22.422Z,30.43
2022-11-29T16:26:52.427Z,31.07
2022-11-29T16:29:24.606Z,29.73
2022-11-29T16:31:53.158Z,30.73
2022-11-29T16:34:27.264Z,30.40
2022-11-29T16:37:06.375Z,29.87
2022-11-29T16:39:36.025Z,29.30
2022-11-29T16:42:14.570Z,30.83
2022-11-29T16:45:07.024Z,28.90
2022-11-29T16:47:48.914Z,29.80
2022-11-29T16:50:19.863Z,29.33
2022-11-29T16:52:52.023Z,30.03
2022-11-29T16:55:23.117Z,30.20
2022-11-29T16:57:52.531Z,30.23
2022-11-29T17:00:30.011Z,30.20
2022-11-29T17:02:58.255Z,30.17
2022-11-29T17:05:26.422Z,30.80
2022-11-29T17:07:54.786Z,31.63
2022-11-29T17:10:25.320Z,31.20
2022-11-29T17:12:54.668Z,32.37
2022-11-29T17:15:22.657Z,31.77
2022-11-29T17:17:50.785Z,29.47
2022-11-29T17:20:18.840Z,29.93
2022-11-29T17:22:46.907Z,32.33
2022-11-29T17:25:14.877Z,31.33
2022-11-29T17:27:42.846Z,32.47
2022-11-29T17:30:13.468Z,30.77
2022-11-29T17:32:41.440Z,30.40
2022-11-29T17:35:10.030Z,30.40
2022-11-29T17:37:38.025Z,28.97
2022-11-29T17:40:06.901Z,32.60
2022-11-29T17:42:34.838Z,30.17
2022-11-29T17:45:02.815Z,31.13
2022-11-29T17:47:33.170Z,31.63
2022-11-29T17:50:01.137Z,30.70
2022-11-29T17:52:29.110Z,33.00
2022-11-29T17:54:57.083Z,34.17
2022-11-29T17:57:25.060Z,34.60
2022-11-29T17:59:53.054Z,32.87
2022-11-29T18:02:21.274Z,33.30
2022-11-29T18:04:50.630Z,31.57
2022-11-29T18:07:18.746Z,33.50
2022-11-29T18:09:48.429Z,33.33
2022-11-29T18:12:16.710Z,32.20
2022-11-29T18:14:44.682Z,32.77
2022-11-29T18:17:13.698Z,32.07
2022-11-29T18:19:42.235Z,33.13
2022-11-29T18:22:11.577Z,32.40
2022-11-29T18:24:43.418Z,33.53
2022-11-29T18:27:11.420Z,34.60
2022-11-29T18:29:39.526Z,34.20
2022-11-29T18:32:07.520Z,32.67
2022-11-29T18:34:35.514Z,32.00
2022-11-29T18:37:03.480Z,32.43
2022-11-29T18:39:32.838Z,32.10
2022-11-29T18:42:00.810Z,33.40
2022-11-29T18:44:30.331Z,31.90
2022-11-29T18:46:58.923Z,33.50
2022-11-29T18:49:26.899Z,32.70
2022-11-29T18:51:54.865Z,32.57
2022-11-29T18:54:22.826Z,32.27
2022-11-29T18:56:52.712Z,33.13
2022-11-29T18:59:22.078Z,32.83
2022-11-29T19:01:50.546Z,33.40
2022-11-29T19:04:20.546Z,32.77
2022-11-29T19:06:48.941Z,32.60
2022-11-29T19:09:19.316Z,34.00
2022-11-29T19:11:48.677Z,33.57
2022-11-29T19:14:18.553Z,33.07
2022-11-29T19:16:48.106Z,34.57
2022-11-29T19:19:18.609Z,34.33
2022-11-29T19:21:46.637Z,34.60
2022-11-29T19:24:17.709Z,33.43
2022-11-29T19:26:47.585Z,34.83
2022-11-29T19:29:17.361Z,34.47
2022-11-29T19:31:45.388Z,35.97
2022-11-29T19:34:13.525Z,36.60
2022-11-29T19:36:43.631Z,35.43
2022-11-29T19:39:14.045Z,37.83
2022-11-29T19:41:43.367Z,39.30
2022-11-29T19:44:12.368Z,36.90
2022-11-29T19:46:43.614Z,39.30
2022-11-29T19:49:12.425Z,37.23
2022-11-29T19:51:40.446Z,34.07
2022-11-29T19:54:10.084Z,34.90
2022-11-29T19:56:38.989Z,35.20
2022-11-29T19:59:07.948Z,35.90
2022-11-29T20:01:43.851Z,35.70
2022-11-29T20:04:16.727Z,37.33
2022-11-29T20:06:45.426Z,39.80
2022-11-29T20:09:14.533Z,37.67
2022-11-29T20:11:42.516Z,38.77
2022-11-29T20:14:14.527Z,36.87
2022-11-29T20:16:43.608Z,37.77
2022-11-29T20:19:14.773Z,38.93
2022-11-29T20:21:45.301Z,37.80
2022-11-29T20:24:14.568Z,37.13
2022-11-29T20:26:44.974Z,38.10
2022-11-29T20:29:14.163Z,37.23
2022-11-29T20:31:49.623Z,37.17
2022-11-29T20:34:21.626Z,37.47
2022-11-29T20:37:19.112Z,35.93
2022-11-29T20:39:53.994Z,36.50
2022-11-29T20:42:51.259Z,36.27
2022-11-29T20:45:19.678Z,34.63
2022-11-29T20:47:52.502Z,35.30
2022-11-29T20:50:24.487Z,33.77
2022-11-29T20:53:04.767Z,34.17
2022-11-29T20:55:32.763Z,34.57
2022-11-29T20:58:00.751Z,32.90
2022-11-29T21:00:28.713Z,34.60
2022-11-29T21:02:56.710Z,33.33
2022-11-29T21:05:26.128Z,33.73
2022-11-29T21:07:54.367Z,33.67
2022-11-29T21:10:22.567Z,31.73
2022-11-29T21:12:51.047Z,33.93
2022-11-29T21:15:19.896Z,33.33
2022-11-29T21:17:48.614Z,34.93
2022-11-29T21:20:21.446Z,33.90
2022-11-29T21:22:58.918Z,33.30
2022-11-29T21:25:39.885Z,31.87
2022-11-29T21:28:11.945Z,32.67
2022-11-29T21:30:40.657Z,34.60
2022-11-29T21:33:09.629Z,34.07
2022-11-29T21:35:39.703Z,34.10
2022-11-29T21:38:15.671Z,34.47
2022-11-29T21:40:43.636Z,33.30
2022-11-29T21:43:11.616Z,32.43
2022-11-29T21:45:39.558Z,31.43
2022-11-29T21:48:28.565Z,30.37
2022-11-29T21:50:57.607Z,30.53
2022-11-29T21:53:27.985Z,30.97
2022-11-29T21:56:00.346Z,31.10
2022-11-29T21:58:30.404Z,31.93
2022-11-29T22:01:05.750Z,31.07
2022-11-29T22:03:33.819Z,31.13
2022-11-29T22:06:03.560Z,31.40
2022-11-29T22:08:36.416Z,32.17
2022-11-29T22:11:06.006Z,33.60
2022-11-29T22:13:34.459Z,33.47
2022-11-29T22:16:10.262Z,31.90
2022-11-29T22:18:38.586Z,31.73
2022-11-29T22:21:08.311Z,31.33
2022-11-29T22:23:37.617Z,31.10
2022-11-29T22:26:06.879Z,30.93
2022-11-29T22:28:35.449Z,31.43
2022-11-29T22:31:05.171Z,31.10
2022-11-29T22:33:33.996Z,30.83
2022-11-29T22:36:05.931Z,30.50
2022-11-29T22:38:33.929Z,30.80
2022-11-29T22:41:04.889Z,30.97
2022-11-29T22:43:33.796Z,29.90
2022-11-29T22:46:05.904Z,28.30
2022-11-29T22:48:38.503Z,29.77
2022-11-29T22:51:08.232Z,28.03
2022-11-29T22:53:37.023Z,27.83
2022-11-29T22:56:08.390Z,29.57
2022-11-29T22:58:36.786Z,29.13
2022-11-29T23:01:06.588Z,30.47
2022-11-29T23:03:36.189Z,31.70
2022-11-29T23:06:06.210Z,30.47
2022-11-29T23:08:35.008Z,30.27
2022-11-29T23:11:04.901Z,29.40
2022-11-29T23:13:35.523Z,29.17
2022-11-29T23:16:05.131Z,34.30
2022-11-29T23:18:33.759Z,34.43
2022-11-29T23:21:02.822Z,33.83
2022-11-29T23:23:31.128Z,42.17
2022-11-29T23:25:59.945Z,39.53
2022-11-29T23:28:28.570Z,35.73
2022-11-29T23:30:59.491Z,32.83
2022-11-29T23:33:28.487Z,31.60
2022-11-29T23:36:02.103Z,31.97
2022-11-29T23:38:30.356Z,31.67
2022-11-29T23:40:58.612Z,32.17
2022-11-29T23:43:29.610Z,31.83
2022-11-29T23:45:59.358Z,33.30
2022-11-29T23:48:27.579Z,33.27
2022-11-29T23:50:55.523Z,31.77
2022-11-29T23:53:23.570Z,33.37
2022-11-29T23:55:57.546Z,30.10
2022-11-29T23:58:25.521Z,29.00
